createdAt,value
2018-07-10T00:00:07.250Z,19.11
2018-07-10T00:00:47.812Z,19.07
2018-07-10T00:01:28.387Z,19.15
2018-07-10T00:02:08.961Z,19.08
2018-07-10T00:02:49.540Z,19.09
2018-07-10T00:03:30.092Z,19.04
2018-07-10T00:04:10.656Z,19.09
2018-07-10T00:04:51.211Z,19.14
2018-07-10T00:05:31.773Z,19.14
2018-07-10T00:06:12.319Z,18.98
2018-07-10T00:06:52.882Z,19.04
2018-07-10T00:07:33.420Z,19.09
2018-07-10T00:08:13.978Z,19.02
2018-07-10T00:08:54.580Z,19.09
2018-07-10T00:09:35.132Z,19.07
2018-07-10T00:10:15.702Z,19.07
2018-07-10T00:10:56.267Z,19.04
2018-07-10T00:11:36.829Z,19.14
2018-07-10T00:12:17.406Z,19.08
2018-07-10T00:12:58.043Z,19.07
2018-07-10T00:13:38.652Z,19
2018-07-10T00:14:19.208Z,19.11
2018-07-10T00:14:59.765Z,19.07
2018-07-10T00:15:40.321Z,19.07
2018-07-10T00:16:20.883Z,19.07
2018-07-10T00:17:01.429Z,19
2018-07-10T00:17:42.037Z,19
2018-07-10T00:18:22.614Z,18.92
2018-07-10T00:19:03.178Z,19.04
2018-07-10T00:19:43.757Z,19.04
2018-07-10T00:20:24.301Z,18.98
2018-07-10T00:21:04.884Z,18.96
2018-07-10T00:21:45.466Z,18.98
2018-07-10T00:22:26.018Z,18.99
2018-07-10T00:23:06.599Z,18.92
2018-07-10T00:23:47.170Z,18.99
2018-07-10T00:24:27.728Z,18.95
2018-07-10T00:25:08.270Z,18.89
2018-07-10T00:25:48.837Z,18.96
2018-07-10T00:26:29.397Z,18.88
2018-07-10T00:27:09.968Z,18.92
2018-07-10T00:27:50.535Z,18.98
2018-07-10T00:28:31.096Z,18.93
2018-07-10T00:29:11.663Z,18.93
2018-07-10T00:29:52.251Z,18.92
2018-07-10T00:30:32.827Z,18.89
2018-07-10T00:31:13.386Z,18.99
2018-07-10T00:31:53.955Z,18.95
2018-07-10T00:32:34.525Z,18.88
2018-07-10T00:33:15.079Z,18.9
2018-07-10T00:33:55.642Z,18.95
2018-07-10T00:34:36.214Z,18.9
2018-07-10T00:35:16.780Z,18.86
2018-07-10T00:35:57.343Z,18.9
2018-07-10T00:36:37.916Z,18.88
2018-07-10T00:37:18.477Z,18.89
2018-07-10T00:37:59.040Z,18.88
2018-07-10T00:38:39.598Z,18.93
2018-07-10T00:39:20.165Z,18.93
2018-07-10T00:40:00.735Z,18.9
2018-07-10T00:40:41.301Z,18.89
2018-07-10T00:41:21.862Z,18.93
2018-07-10T00:42:02.460Z,18.88
2018-07-10T00:42:43.018Z,18.9
2018-07-10T00:43:23.604Z,18.89
2018-07-10T00:44:04.162Z,18.84
2018-07-10T00:44:44.728Z,18.9
2018-07-10T00:45:25.294Z,18.81
2018-07-10T00:46:05.851Z,18.84
2018-07-10T00:46:46.444Z,18.84
2018-07-10T00:47:27.003Z,18.88
2018-07-10T00:48:07.555Z,18.86
2018-07-10T00:48:48.119Z,18.81
2018-07-10T00:49:28.686Z,18.74
2018-07-10T00:50:09.254Z,18.8
2018-07-10T00:50:49.826Z,18.75
2018-07-10T00:51:30.380Z,18.78
2018-07-10T00:52:10.962Z,18.83
2018-07-10T00:52:51.535Z,18.84
2018-07-10T00:53:32.091Z,18.77
2018-07-10T00:54:12.639Z,18.78
2018-07-10T00:54:53.204Z,18.78
2018-07-10T00:55:33.744Z,18.77
2018-07-10T00:56:14.332Z,18.78
2018-07-10T00:56:54.891Z,18.81
2018-07-10T00:57:35.469Z,18.78
2018-07-10T00:58:16.034Z,18.74
2018-07-10T00:58:56.596Z,18.77
2018-07-10T00:59:37.168Z,18.75
2018-07-10T01:00:17.726Z,18.78
2018-07-10T01:00:58.287Z,18.77
2018-07-10T01:01:38.868Z,18.78
2018-07-10T01:02:19.439Z,18.8
2018-07-10T01:02:59.995Z,18.75
2018-07-10T01:03:40.564Z,18.7
2018-07-10T01:04:21.126Z,18.8
2018-07-10T01:05:01.677Z,18.7
2018-07-10T01:05:42.244Z,18.7
2018-07-10T01:06:22.836Z,18.73
2018-07-10T01:07:03.407Z,18.73
2018-07-10T01:07:43.953Z,18.7
2018-07-10T01:08:24.496Z,18.73
2018-07-10T01:09:05.071Z,18.73
2018-07-10T01:09:45.596Z,18.75
2018-07-10T01:10:26.187Z,18.7
2018-07-10T01:11:06.732Z,18.68
2018-07-10T01:11:47.301Z,18.75
2018-07-10T01:12:27.871Z,18.77
2018-07-10T01:13:08.435Z,18.75
2018-07-10T01:13:49.003Z,18.71
2018-07-10T01:14:29.554Z,18.7
2018-07-10T01:15:10.119Z,18.74
2018-07-10T01:15:50.659Z,18.7
2018-07-10T01:16:31.228Z,18.77
2018-07-10T01:17:11.793Z,18.71
2018-07-10T01:17:52.358Z,18.65
2018-07-10T01:18:32.926Z,18.74
2018-07-10T01:19:13.513Z,18.78
2018-07-10T01:19:54.077Z,18.74
2018-07-10T01:20:34.640Z,18.7
2018-07-10T01:21:15.197Z,18.71
2018-07-10T01:21:55.760Z,18.65
2018-07-10T01:22:36.329Z,18.66
2018-07-10T01:23:16.908Z,18.7
2018-07-10T01:23:57.474Z,18.65
2018-07-10T01:24:38.019Z,18.7
2018-07-10T01:25:18.573Z,18.66
2018-07-10T01:25:59.128Z,18.62
2018-07-10T01:26:39.710Z,18.6
2018-07-10T01:27:20.274Z,18.6
2018-07-10T01:28:00.837Z,18.62
2018-07-10T01:28:41.407Z,18.58
2018-07-10T01:29:21.980Z,18.59
2018-07-10T01:30:02.534Z,18.6
2018-07-10T01:30:43.092Z,18.53
2018-07-10T01:31:23.649Z,18.62
2018-07-10T01:32:04.231Z,18.52
2018-07-10T01:32:44.805Z,18.52
2018-07-10T01:33:25.384Z,18.52
2018-07-10T01:34:05.977Z,18.55
2018-07-10T01:34:46.558Z,18.47
2018-07-10T01:35:27.118Z,18.6
2018-07-10T01:36:07.683Z,18.53
2018-07-10T01:36:48.268Z,18.55
2018-07-10T01:37:28.823Z,18.53
2018-07-10T01:38:09.393Z,18.53
2018-07-10T01:38:49.983Z,18.45
2018-07-10T01:39:30.546Z,18.49
2018-07-10T01:40:11.113Z,18.45
2018-07-10T01:40:51.718Z,18.49
2018-07-10T01:41:32.277Z,18.49
2018-07-10T01:42:12.852Z,18.47
2018-07-10T01:42:53.395Z,18.41
2018-07-10T01:43:33.956Z,18.4
2018-07-10T01:44:14.500Z,18.44
2018-07-10T01:44:55.070Z,18.45
2018-07-10T01:45:35.637Z,18.49
2018-07-10T01:46:16.202Z,18.44
2018-07-10T01:46:56.779Z,18.44
2018-07-10T01:47:37.326Z,18.45
2018-07-10T01:48:17.892Z,18.53
2018-07-10T01:48:58.463Z,18.41
2018-07-10T01:49:39.022Z,18.5
2018-07-10T01:50:19.590Z,18.43
2018-07-10T01:51:00.145Z,18.44
2018-07-10T01:51:40.704Z,18.4
2018-07-10T01:52:21.284Z,18.43
2018-07-10T01:53:01.879Z,18.37
2018-07-10T01:53:42.424Z,18.41
2018-07-10T01:54:22.979Z,18.5
2018-07-10T01:55:03.521Z,18.45
2018-07-10T01:55:44.071Z,18.44
2018-07-10T01:56:24.637Z,18.43
2018-07-10T01:57:05.177Z,18.45
2018-07-10T01:57:45.741Z,18.47
2018-07-10T01:58:26.310Z,18.44
2018-07-10T01:59:06.875Z,18.41
2018-07-10T01:59:47.445Z,18.4
2018-07-10T02:00:28.020Z,18.44
2018-07-10T02:01:08.588Z,18.4
2018-07-10T02:01:49.135Z,18.43
2018-07-10T02:02:29.705Z,18.43
2018-07-10T02:03:10.276Z,18.45
2018-07-10T02:03:50.861Z,18.41
2018-07-10T02:04:31.422Z,18.47
2018-07-10T02:05:11.985Z,18.38
2018-07-10T02:05:52.557Z,18.45
2018-07-10T02:06:33.112Z,18.43
2018-07-10T02:07:13.718Z,18.5
2018-07-10T02:07:54.276Z,18.44
2018-07-10T02:08:34.827Z,18.4
2018-07-10T02:09:15.396Z,18.38
2018-07-10T02:09:55.955Z,18.45
2018-07-10T02:10:36.530Z,18.4
2018-07-10T02:11:17.088Z,18.45
2018-07-10T02:11:57.644Z,18.44
2018-07-10T02:12:38.234Z,18.43
2018-07-10T02:13:18.787Z,18.37
2018-07-10T02:13:59.416Z,18.44
2018-07-10T02:14:39.940Z,18.43
2018-07-10T02:15:20.521Z,18.4
2018-07-10T02:16:01.080Z,18.45
2018-07-10T02:16:41.641Z,18.45
2018-07-10T02:17:22.204Z,18.43
2018-07-10T02:18:02.745Z,18.45
2018-07-10T02:18:43.305Z,18.31
2018-07-10T02:19:23.861Z,18.47
2018-07-10T02:20:04.396Z,18.45
2018-07-10T02:20:44.948Z,18.35
2018-07-10T02:21:25.508Z,18.31
2018-07-10T02:22:06.085Z,18.26
2018-07-10T02:22:46.655Z,18.28
2018-07-10T02:23:27.232Z,18.29
2018-07-10T02:24:07.790Z,18.26
2018-07-10T02:24:48.334Z,18.29
2018-07-10T02:25:28.906Z,18.29
2018-07-10T02:26:09.449Z,18.29
2018-07-10T02:26:50.004Z,18.28
2018-07-10T02:27:30.557Z,18.28
2018-07-10T02:28:11.134Z,18.33
2018-07-10T02:28:51.719Z,18.29
2018-07-10T02:29:32.284Z,18.33
2018-07-10T02:30:12.842Z,18.33
2018-07-10T02:30:53.411Z,18.2
2018-07-10T02:31:33.973Z,18.35
2018-07-10T02:32:14.517Z,18.23
2018-07-10T02:32:55.070Z,18.22
2018-07-10T02:33:35.613Z,18.25
2018-07-10T02:34:16.183Z,18.23
2018-07-10T02:34:56.749Z,18.23
2018-07-10T02:35:37.346Z,18.33
2018-07-10T02:36:17.898Z,18.25
2018-07-10T02:36:58.458Z,18.29
2018-07-10T02:37:39.018Z,18.25
2018-07-10T02:38:19.575Z,18.25
2018-07-10T02:39:00.116Z,18.22
2018-07-10T02:39:40.668Z,18.29
2018-07-10T02:40:21.226Z,18.31
2018-07-10T02:41:01.789Z,18.18
2018-07-10T02:41:42.364Z,18.18
2018-07-10T02:42:22.949Z,18.13
2018-07-10T02:43:03.514Z,18.15
2018-07-10T02:43:44.062Z,18.2
2018-07-10T02:44:24.626Z,18.15
2018-07-10T02:45:05.178Z,18.19
2018-07-10T02:45:45.740Z,18.15
2018-07-10T02:46:26.286Z,18.11
2018-07-10T02:47:06.827Z,18.2
2018-07-10T02:47:47.415Z,18.16
2018-07-10T02:48:27.991Z,18.15
2018-07-10T02:49:08.539Z,18.2
2018-07-10T02:49:49.132Z,18.13
2018-07-10T02:50:29.685Z,18.22
2018-07-10T02:51:10.252Z,18.11
2018-07-10T02:51:50.821Z,18.22
2018-07-10T02:52:31.396Z,18.22
2018-07-10T02:53:11.962Z,18.18
2018-07-10T02:53:52.522Z,18.15
2018-07-10T02:54:33.079Z,18.11
2018-07-10T02:55:13.639Z,18.15
2018-07-10T02:55:54.263Z,18.16
2018-07-10T02:56:34.742Z,18.07
2018-07-10T02:57:15.317Z,18.11
2018-07-10T02:57:55.871Z,18.1
2018-07-10T02:58:36.429Z,18.05
2018-07-10T02:59:17.005Z,18.05
2018-07-10T02:59:57.592Z,18.03
2018-07-10T03:00:38.147Z,18.11
2018-07-10T03:01:18.708Z,18.1
2018-07-10T03:01:59.271Z,18.04
2018-07-10T03:02:39.826Z,18.07
2018-07-10T03:03:20.386Z,18.1
2018-07-10T03:04:00.924Z,18.01
2018-07-10T03:04:41.480Z,18.1
2018-07-10T03:05:22.031Z,18.03
2018-07-10T03:06:02.599Z,18.05
2018-07-10T03:06:43.179Z,18.07
2018-07-10T03:07:23.730Z,18.04
2018-07-10T03:08:04.291Z,18.01
2018-07-10T03:08:44.856Z,18.01
2018-07-10T03:09:25.418Z,18.03
2018-07-10T03:10:06.016Z,18.11
2018-07-10T03:10:46.586Z,18.08
2018-07-10T03:11:27.167Z,18.04
2018-07-10T03:12:07.719Z,17.98
2018-07-10T03:12:48.322Z,18.07
2018-07-10T03:13:28.883Z,18.08
2018-07-10T03:14:09.453Z,18.04
2018-07-10T03:14:50.017Z,18.11
2018-07-10T03:15:30.577Z,18.07
2018-07-10T03:16:11.142Z,18.05
2018-07-10T03:16:51.694Z,18.08
2018-07-10T03:17:32.268Z,18.08
2018-07-10T03:18:12.849Z,18.1
2018-07-10T03:18:53.408Z,18.05
2018-07-10T03:19:33.972Z,18.16
2018-07-10T03:20:14.525Z,18.11
2018-07-10T03:20:55.085Z,18.11
2018-07-10T03:21:35.639Z,18.1
2018-07-10T03:22:16.195Z,18.13
2018-07-10T03:22:56.753Z,18.16
2018-07-10T03:23:37.332Z,18.11
2018-07-10T03:24:17.889Z,18.1
2018-07-10T03:24:58.483Z,18.08
2018-07-10T03:25:39.037Z,18.08
2018-07-10T03:26:19.604Z,18.11
2018-07-10T03:27:00.165Z,18.08
2018-07-10T03:27:40.719Z,18.13
2018-07-10T03:28:21.301Z,18.03
2018-07-10T03:29:01.840Z,18.05
2018-07-10T03:29:42.410Z,18.1
2018-07-10T03:30:22.967Z,18.07
2018-07-10T03:31:03.540Z,18.07
2018-07-10T03:31:44.114Z,18.07
2018-07-10T03:32:24.657Z,17.98
2018-07-10T03:33:05.216Z,18
2018-07-10T03:33:45.741Z,18.07
2018-07-10T03:34:26.300Z,18.1
2018-07-10T03:35:06.855Z,18.04
2018-07-10T03:35:47.417Z,18.04
2018-07-10T03:36:27.968Z,18.08
2018-07-10T03:37:08.516Z,18.07
2018-07-10T03:37:49.063Z,18.1
2018-07-10T03:38:29.618Z,18.08
2018-07-10T03:39:10.174Z,18.13
2018-07-10T03:39:50.748Z,18.05
2018-07-10T03:40:31.312Z,18.04
2018-07-10T03:41:11.894Z,18.08
2018-07-10T03:41:52.456Z,18.1
2018-07-10T03:42:33.014Z,18.13
2018-07-10T03:43:13.587Z,18.1
2018-07-10T03:43:54.168Z,18.1
2018-07-10T03:44:34.742Z,18.1
2018-07-10T03:45:15.304Z,18.04
2018-07-10T03:45:55.857Z,18.05
2018-07-10T03:46:36.417Z,17.98
2018-07-10T03:47:16.958Z,18.04
2018-07-10T03:47:57.517Z,17.98
2018-07-10T03:48:38.094Z,17.98
2018-07-10T03:49:18.693Z,17.97
2018-07-10T03:49:59.240Z,17.95
2018-07-10T03:50:39.786Z,17.92
2018-07-10T03:51:20.354Z,17.98
2018-07-10T03:52:00.929Z,18
2018-07-10T03:52:41.492Z,17.92
2018-07-10T03:53:22.044Z,17.94
2018-07-10T03:54:02.593Z,17.92
2018-07-10T03:54:43.154Z,18.01
2018-07-10T03:55:23.739Z,17.89
2018-07-10T03:56:04.306Z,17.92
2018-07-10T03:56:44.867Z,17.95
2018-07-10T03:57:25.438Z,17.92
2018-07-10T03:58:05.991Z,17.86
2018-07-10T03:58:46.561Z,17.94
2018-07-10T03:59:27.120Z,17.94
2018-07-10T04:00:07.710Z,17.89
2018-07-10T04:00:48.263Z,17.87
2018-07-10T04:01:28.871Z,17.85
2018-07-10T04:02:09.377Z,17.89
2018-07-10T04:02:49.936Z,17.89
2018-07-10T04:03:30.558Z,17.9
2018-07-10T04:04:11.119Z,17.86
2018-07-10T04:04:51.682Z,17.92
2018-07-10T04:05:32.245Z,17.87
2018-07-10T04:06:12.802Z,17.87
2018-07-10T04:06:53.360Z,17.87
2018-07-10T04:07:33.930Z,17.98
2018-07-10T04:08:14.500Z,17.9
2018-07-10T04:08:55.067Z,17.95
2018-07-10T04:09:35.625Z,17.92
2018-07-10T04:10:16.183Z,17.87
2018-07-10T04:10:56.738Z,17.85
2018-07-10T04:11:37.317Z,17.89
2018-07-10T04:12:17.841Z,17.9
2018-07-10T04:12:58.395Z,17.86
2018-07-10T04:13:38.977Z,17.83
2018-07-10T04:14:19.539Z,17.85
2018-07-10T04:15:00.117Z,17.79
2018-07-10T04:15:40.701Z,17.9
2018-07-10T04:16:21.241Z,17.87
2018-07-10T04:17:01.800Z,17.85
2018-07-10T04:17:42.393Z,17.9
2018-07-10T04:18:22.948Z,17.86
2018-07-10T04:19:03.513Z,17.92
2018-07-10T04:19:44.088Z,17.94
2018-07-10T04:20:24.650Z,17.89
2018-07-10T04:21:05.216Z,17.86
2018-07-10T04:21:45.757Z,17.94
2018-07-10T04:22:26.318Z,17.9
2018-07-10T04:23:06.882Z,17.94
2018-07-10T04:23:47.446Z,17.86
2018-07-10T04:24:28.014Z,17.86
2018-07-10T04:25:08.597Z,17.94
2018-07-10T04:25:49.155Z,17.82
2018-07-10T04:26:29.706Z,17.83
2018-07-10T04:27:10.271Z,17.85
2018-07-10T04:27:50.844Z,17.8
2018-07-10T04:28:31.411Z,17.92
2018-07-10T04:29:11.990Z,17.85
2018-07-10T04:29:52.567Z,17.86
2018-07-10T04:30:33.131Z,17.87
2018-07-10T04:31:13.675Z,17.85
2018-07-10T04:31:54.253Z,17.9
2018-07-10T04:32:34.825Z,17.85
2018-07-10T04:33:15.396Z,17.82
2018-07-10T04:33:55.971Z,17.89
2018-07-10T04:34:36.576Z,17.86
2018-07-10T04:35:17.139Z,17.8
2018-07-10T04:35:57.707Z,17.83
2018-07-10T04:36:38.295Z,17.89
2018-07-10T04:37:18.842Z,17.8
2018-07-10T04:37:59.417Z,17.85
2018-07-10T04:38:39.971Z,17.8
2018-07-10T04:39:20.704Z,17.85
2018-07-10T04:40:01.281Z,17.79
2018-07-10T04:40:41.840Z,17.87
2018-07-10T04:41:22.425Z,17.86
2018-07-10T04:42:02.968Z,17.83
2018-07-10T04:42:43.537Z,17.86
2018-07-10T04:43:24.108Z,17.89
2018-07-10T04:44:05.005Z,17.87
2018-07-10T04:44:45.620Z,17.89
2018-07-10T04:45:26.188Z,17.94
2018-07-10T04:46:06.852Z,17.87
2018-07-10T04:46:47.401Z,17.89
2018-07-10T04:47:27.973Z,17.86
2018-07-10T04:48:08.534Z,17.94
2018-07-10T04:48:49.090Z,17.92
2018-07-10T04:49:29.640Z,17.92
2018-07-10T04:50:10.207Z,17.95
2018-07-10T04:50:50.794Z,17.98
2018-07-10T04:51:31.359Z,18.01
2018-07-10T04:52:11.920Z,17.94
2018-07-10T04:52:52.538Z,18.01
2018-07-10T04:53:33.109Z,17.98
2018-07-10T04:54:13.668Z,17.97
2018-07-10T04:54:54.251Z,17.9
2018-07-10T04:55:34.884Z,17.94
2018-07-10T04:56:15.364Z,17.9
2018-07-10T04:56:55.930Z,17.95
2018-07-10T04:57:36.525Z,17.9
2018-07-10T04:58:17.102Z,17.86
2018-07-10T04:58:57.656Z,17.89
2018-07-10T04:59:38.221Z,17.89
2018-07-10T05:00:18.831Z,17.79
2018-07-10T05:00:59.387Z,17.92
2018-07-10T05:01:39.958Z,17.86
2018-07-10T05:02:20.698Z,17.89
2018-07-10T05:03:01.289Z,17.89
2018-07-10T05:03:42.575Z,17.86
2018-07-10T05:04:22.825Z,17.87
2018-07-10T05:05:03.396Z,17.83
2018-07-10T05:05:44.374Z,17.87
2018-07-10T05:06:24.903Z,17.82
2018-07-10T05:07:05.488Z,17.94
2018-07-10T05:07:46.057Z,17.87
2018-07-10T05:08:26.622Z,17.92
2018-07-10T05:09:07.196Z,17.86
2018-07-10T05:09:47.758Z,17.94
2018-07-10T05:10:28.342Z,17.85
2018-07-10T05:11:08.913Z,17.95
2018-07-10T05:11:49.469Z,17.86
2018-07-10T05:12:30.029Z,17.86
2018-07-10T05:13:10.597Z,17.9
2018-07-10T05:13:51.171Z,17.9
2018-07-10T05:14:31.743Z,17.87
2018-07-10T05:15:12.299Z,17.86
2018-07-10T05:15:52.858Z,17.89
2018-07-10T05:16:33.406Z,17.94
2018-07-10T05:17:13.965Z,17.97
2018-07-10T05:17:54.552Z,18
2018-07-10T05:18:35.337Z,18.01
2018-07-10T05:19:15.925Z,17.95
2018-07-10T05:19:56.480Z,17.95
2018-07-10T05:20:37.036Z,17.95
2018-07-10T05:21:17.587Z,17.98
2018-07-10T05:21:58.147Z,17.98
2018-07-10T05:22:38.708Z,17.95
2018-07-10T05:23:19.393Z,17.97
2018-07-10T05:23:59.964Z,17.98
2018-07-10T05:24:40.549Z,17.95
2018-07-10T05:25:21.121Z,18
2018-07-10T05:26:01.688Z,17.98
2018-07-10T05:26:42.259Z,17.89
2018-07-10T05:27:22.827Z,18.03
2018-07-10T05:28:03.481Z,17.98
2018-07-10T05:28:44.056Z,17.95
2018-07-10T05:29:24.609Z,17.95
2018-07-10T05:30:05.172Z,18.03
2018-07-10T05:30:45.727Z,17.95
2018-07-10T05:31:26.310Z,18.01
2018-07-10T05:32:06.887Z,18.03
2018-07-10T05:32:47.424Z,18.01
2018-07-10T05:33:27.993Z,18.03
2018-07-10T05:34:08.546Z,18.07
2018-07-10T05:34:49.118Z,18.11
2018-07-10T05:35:29.682Z,18.04
2018-07-10T05:36:10.253Z,18.1
2018-07-10T05:36:50.835Z,18.15
2018-07-10T05:37:31.393Z,18.13
2018-07-10T05:38:12.017Z,18.08
2018-07-10T05:38:52.575Z,18.1
2018-07-10T05:39:33.141Z,18.11
2018-07-10T05:40:13.702Z,18.1
2018-07-10T05:40:54.299Z,18.07
2018-07-10T05:41:34.881Z,18.1
2018-07-10T05:42:15.482Z,18.2
2018-07-10T05:42:56.046Z,18.1
2018-07-10T05:43:36.607Z,18.16
2018-07-10T05:44:17.178Z,18.16
2018-07-10T05:44:57.750Z,18.19
2018-07-10T05:45:38.312Z,18.25
2018-07-10T05:46:18.932Z,18.2
2018-07-10T05:46:59.430Z,18.16
2018-07-10T05:47:39.978Z,18.11
2018-07-10T05:48:20.525Z,18.16
2018-07-10T05:49:01.081Z,18.16
2018-07-10T05:49:41.652Z,18.11
2018-07-10T05:50:22.218Z,18.23
2018-07-10T05:51:02.782Z,18.16
2018-07-10T05:51:43.418Z,18.15
2018-07-10T05:52:23.920Z,18.2
2018-07-10T05:53:04.488Z,18.18
2018-07-10T05:53:45.047Z,18.19
2018-07-10T05:54:25.615Z,18.15
2018-07-10T05:55:06.180Z,18.13
2018-07-10T05:55:46.827Z,18.19
2018-07-10T05:56:27.493Z,18.13
2018-07-10T05:57:08.066Z,18.2
2018-07-10T05:57:48.624Z,18.13
2018-07-10T05:58:29.194Z,18.08
2018-07-10T05:59:09.751Z,18.13
2018-07-10T05:59:50.328Z,18.04
2018-07-10T06:00:30.889Z,18.05
2018-07-10T06:01:11.451Z,18.03
2018-07-10T06:01:52.013Z,18
2018-07-10T06:02:32.582Z,18.1
2018-07-10T06:03:13.138Z,18.05
2018-07-10T06:03:53.689Z,18.05
2018-07-10T06:04:34.285Z,18.07
2018-07-10T06:05:14.818Z,18.03
2018-07-10T06:05:55.371Z,17.98
2018-07-10T06:06:35.949Z,18
2018-07-10T06:07:16.540Z,18.01
2018-07-10T06:07:57.101Z,18.01
2018-07-10T06:08:37.666Z,18
2018-07-10T06:09:18.259Z,17.98
2018-07-10T06:09:58.832Z,18.01
2018-07-10T06:10:39.384Z,17.98
2018-07-10T06:11:19.953Z,17.95
2018-07-10T06:12:00.510Z,18.04
2018-07-10T06:12:41.063Z,17.98
2018-07-10T06:13:21.611Z,17.97
2018-07-10T06:14:02.187Z,18.01
2018-07-10T06:14:42.726Z,17.97
2018-07-10T06:15:23.311Z,18.01
2018-07-10T06:16:03.841Z,17.97
2018-07-10T06:16:44.421Z,17.95
2018-07-10T06:17:24.988Z,17.95
2018-07-10T06:18:05.553Z,17.98
2018-07-10T06:18:46.139Z,17.94
2018-07-10T06:19:26.708Z,17.9
2018-07-10T06:20:07.266Z,17.9
2018-07-10T06:20:47.823Z,17.85
2018-07-10T06:21:28.414Z,17.94
2018-07-10T06:22:08.969Z,17.86
2018-07-10T06:22:49.540Z,17.92
2018-07-10T06:23:30.162Z,17.89
2018-07-10T06:24:10.681Z,17.85
2018-07-10T06:24:51.260Z,17.86
2018-07-10T06:25:31.813Z,17.92
2018-07-10T06:26:12.376Z,17.92
2018-07-10T06:26:52.931Z,17.95
2018-07-10T06:27:33.484Z,17.98
2018-07-10T06:28:14.089Z,18.03
2018-07-10T06:28:54.638Z,18.01
2018-07-10T06:29:35.237Z,18.05
2018-07-10T06:30:15.823Z,18.01
2018-07-10T06:30:56.393Z,18.11
2018-07-10T06:31:36.964Z,18.1
2018-07-10T06:32:17.541Z,18.11
2018-07-10T06:32:58.090Z,18.15
2018-07-10T06:33:38.661Z,18.07
2018-07-10T06:34:19.226Z,18.11
2018-07-10T06:34:59.802Z,18.13
2018-07-10T06:35:40.382Z,18.1
2018-07-10T06:36:20.936Z,18.18
2018-07-10T06:37:01.492Z,18.11
2018-07-10T06:37:42.053Z,18.13
2018-07-10T06:38:22.601Z,18.2
2018-07-10T06:39:03.163Z,18.23
2018-07-10T06:39:43.744Z,18.16
2018-07-10T06:40:24.297Z,18.15
2018-07-10T06:41:04.862Z,18.11
2018-07-10T06:41:45.446Z,18.26
2018-07-10T06:42:25.997Z,18.28
2018-07-10T06:43:06.561Z,18.26
2018-07-10T06:43:47.128Z,18.35
2018-07-10T06:44:27.707Z,18.31
2018-07-10T06:45:08.263Z,18.37
2018-07-10T06:45:48.842Z,18.35
2018-07-10T06:46:29.399Z,18.45
2018-07-10T06:47:09.943Z,18.44
2018-07-10T06:47:50.554Z,18.41
2018-07-10T06:48:31.091Z,18.38
2018-07-10T06:49:11.661Z,18.47
2018-07-10T06:49:52.231Z,18.47
2018-07-10T06:50:32.789Z,18.41
2018-07-10T06:51:13.348Z,18.45
2018-07-10T06:51:53.905Z,18.4
2018-07-10T06:52:34.683Z,18.43
2018-07-10T06:53:15.426Z,18.44
2018-07-10T06:53:55.609Z,18.44
2018-07-10T06:54:36.204Z,18.45
2018-07-10T06:55:16.762Z,18.44
2018-07-10T06:55:57.304Z,18.55
2018-07-10T06:56:37.857Z,18.47
2018-07-10T06:57:18.444Z,18.47
2018-07-10T06:57:59.047Z,18.47
2018-07-10T06:58:39.603Z,18.45
2018-07-10T06:59:20.171Z,18.47
2018-07-10T07:00:00.743Z,18.53
2018-07-10T07:00:41.298Z,18.55
2018-07-10T07:01:21.883Z,18.6
2018-07-10T07:02:02.460Z,18.59
2018-07-10T07:02:43.037Z,18.58
2018-07-10T07:03:23.591Z,18.56
2018-07-10T07:04:04.161Z,18.52
2018-07-10T07:04:44.761Z,18.59
2018-07-10T07:05:25.314Z,18.59
2018-07-10T07:06:05.942Z,18.5
2018-07-10T07:06:46.509Z,18.47
2018-07-10T07:07:27.115Z,18.49
2018-07-10T07:08:07.649Z,18.53
2018-07-10T07:08:48.318Z,18.55
2018-07-10T07:09:28.890Z,18.59
2018-07-10T07:10:09.476Z,18.63
2018-07-10T07:10:50.043Z,18.5
2018-07-10T07:11:30.600Z,18.56
2018-07-10T07:12:11.191Z,18.59
2018-07-10T07:12:51.756Z,18.56
2018-07-10T07:13:32.333Z,18.58
2018-07-10T07:14:12.905Z,18.53
2018-07-10T07:14:53.487Z,18.45
2018-07-10T07:15:34.052Z,18.47
2018-07-10T07:16:14.627Z,18.53
2018-07-10T07:16:55.205Z,18.5
2018-07-10T07:17:35.758Z,18.4
2018-07-10T07:18:16.312Z,18.38
2018-07-10T07:18:56.866Z,18.44
2018-07-10T07:19:37.438Z,18.43
2018-07-10T07:20:18.016Z,18.35
2018-07-10T07:20:58.585Z,18.44
2018-07-10T07:21:39.138Z,18.41
2018-07-10T07:22:19.690Z,18.33
2018-07-10T07:23:00.274Z,18.38
2018-07-10T07:23:40.879Z,18.45
2018-07-10T07:24:21.411Z,18.38
2018-07-10T07:25:01.970Z,18.44
2018-07-10T07:25:42.547Z,18.34
2018-07-10T07:26:23.102Z,18.35
2018-07-10T07:27:03.731Z,18.35
2018-07-10T07:27:44.344Z,18.37
2018-07-10T07:28:24.911Z,18.45
2018-07-10T07:29:05.485Z,18.41
2018-07-10T07:29:46.051Z,18.41
2018-07-10T07:30:26.613Z,18.37
2018-07-10T07:31:07.191Z,18.41
2018-07-10T07:31:47.756Z,18.49
2018-07-10T07:32:28.312Z,18.38
2018-07-10T07:33:08.867Z,18.34
2018-07-10T07:33:49.486Z,18.44
2018-07-10T07:34:30.043Z,18.43
2018-07-10T07:35:10.616Z,18.45
2018-07-10T07:35:51.187Z,18.47
2018-07-10T07:36:31.772Z,18.49
2018-07-10T07:37:12.331Z,18.44
2018-07-10T07:37:52.887Z,18.52
2018-07-10T07:38:33.449Z,18.55
2018-07-10T07:39:14.014Z,18.5
2018-07-10T07:39:54.634Z,18.59
2018-07-10T07:40:35.181Z,18.63
2018-07-10T07:41:15.763Z,18.62
2018-07-10T07:41:56.332Z,18.65
2018-07-10T07:42:36.907Z,18.6
2018-07-10T07:43:17.486Z,18.63
2018-07-10T07:43:58.206Z,18.65
2018-07-10T07:44:38.666Z,18.55
2018-07-10T07:45:19.243Z,18.52
2018-07-10T07:45:59.834Z,18.59
2018-07-10T07:46:40.392Z,18.66
2018-07-10T07:47:20.965Z,18.7
2018-07-10T07:48:01.527Z,18.83
2018-07-10T07:48:42.096Z,18.92
2018-07-10T07:49:22.651Z,19.16
2018-07-10T07:50:03.203Z,19.41
2018-07-10T07:50:43.771Z,19.63
2018-07-10T07:51:24.322Z,19.71
2018-07-10T07:52:04.891Z,19.92
2018-07-10T07:52:45.460Z,20.14
2018-07-10T07:53:26.024Z,20.25
2018-07-10T07:54:06.616Z,20.37
2018-07-10T07:54:47.167Z,20.6
2018-07-10T07:55:27.775Z,20.77
2018-07-10T07:56:08.292Z,20.92
2018-07-10T07:56:48.873Z,21.03
2018-07-10T07:57:29.468Z,21.11
2018-07-10T07:58:10.044Z,21.15
2018-07-10T07:58:50.605Z,21.14
2018-07-10T07:59:31.171Z,21.11
2018-07-10T08:00:11.747Z,21.03
2018-07-10T08:00:52.315Z,20.9
2018-07-10T08:01:32.887Z,20.93
2018-07-10T08:02:13.467Z,20.85
2018-07-10T08:02:54.046Z,21.06
2018-07-10T08:03:34.616Z,21.11
2018-07-10T08:04:15.182Z,21.14
2018-07-10T08:04:55.752Z,21.09
2018-07-10T08:05:36.324Z,21.07
2018-07-10T08:06:16.890Z,21
2018-07-10T08:06:57.471Z,20.88
2018-07-10T08:07:38.054Z,20.92
2018-07-10T08:08:18.612Z,20.74
2018-07-10T08:08:59.181Z,20.74
2018-07-10T08:09:39.741Z,20.63
2018-07-10T08:10:20.311Z,20.55
2018-07-10T08:11:00.871Z,20.47
2018-07-10T08:11:41.440Z,20.52
2018-07-10T08:12:22.058Z,20.47
2018-07-10T08:13:02.621Z,20.62
2018-07-10T08:13:43.176Z,20.59
2018-07-10T08:14:23.739Z,20.67
2018-07-10T08:15:04.338Z,20.69
2018-07-10T08:15:44.871Z,20.69
2018-07-10T08:16:25.441Z,20.67
2018-07-10T08:17:06.037Z,20.65
2018-07-10T08:17:46.592Z,20.6
2018-07-10T08:18:27.164Z,20.47
2018-07-10T08:19:07.753Z,20.6
2018-07-10T08:19:48.290Z,20.48
2018-07-10T08:20:28.868Z,20.41
2018-07-10T08:21:09.436Z,20.47
2018-07-10T08:21:50.006Z,20.44
2018-07-10T08:22:30.601Z,20.44
2018-07-10T08:23:11.171Z,20.51
2018-07-10T08:23:51.731Z,20.58
2018-07-10T08:24:32.314Z,20.44
2018-07-10T08:25:12.858Z,20.48
2018-07-10T08:25:53.411Z,20.51
2018-07-10T08:26:33.965Z,20.44
2018-07-10T08:27:14.537Z,20.5
2018-07-10T08:27:55.092Z,20.44
2018-07-10T08:28:35.652Z,20.55
2018-07-10T08:29:16.204Z,20.43
2018-07-10T08:29:56.774Z,20.36
2018-07-10T08:30:37.341Z,20.32
2018-07-10T08:31:17.904Z,20.36
2018-07-10T08:31:58.466Z,20.29
2018-07-10T08:32:39.072Z,20.26
2018-07-10T08:33:19.729Z,20.32
2018-07-10T08:34:00.255Z,20.29
2018-07-10T08:34:40.776Z,20.24
2018-07-10T08:35:21.349Z,20.18
2018-07-10T08:36:01.917Z,20.25
2018-07-10T08:36:42.481Z,20.24
2018-07-10T08:37:23.046Z,20.29
2018-07-10T08:38:03.643Z,20.31
2018-07-10T08:38:44.224Z,20.31
2018-07-10T08:39:24.800Z,20.32
2018-07-10T08:40:05.351Z,20.26
2018-07-10T08:40:46.051Z,20.26
2018-07-10T08:41:26.614Z,20.24
2018-07-10T08:42:07.186Z,20.29
2018-07-10T08:42:47.849Z,20.29
2018-07-10T08:43:28.584Z,20.34
2018-07-10T08:44:09.309Z,20.34
2018-07-10T08:44:50.133Z,20.26